sensor_id;sensor_type;location;lat;lon;timestamp;P1;durP1;ratioP1;P2;durP2;ratioP2
22646;SDS011;11490;42.726;23.268;2023-02-24T00:01:25;9.93;;;5.20;;
22646;SDS011;11490;42.726;23.268;2023-02-24T00:04:01;9.57;;;5.15;;
22646;SDS011;11490;42.726;23.268;2023-02-24T00:06:32;8.60;;;5.50;;
22646;SDS011;11490;42.726;23.268;2023-02-24T00:11:43;8.20;;;4.90;;
22646;SDS011;11490;42.726;23.268;2023-02-24T00:14:11;8.13;;;4.80;;
22646;SDS011;11490;42.726;23.268;2023-02-24T00:16:43;12.15;;;5.72;;
22646;SDS011;11490;42.726;23.268;2023-02-24T00:19:09;13.32;;;6.57;;
22646;SDS011;11490;42.726;23.268;2023-02-24T00:21:41;17.02;;;6.30;;
22646;SDS011;11490;42.726;23.268;2023-02-24T00:24:07;9.48;;;5.43;;
22646;SDS011;11490;42.726;23.268;2023-02-24T00:26:33;8.15;;;5.80;;
22646;SDS011;11490;42.726;23.268;2023-02-24T00:28:58;9.90;;;5.30;;
22646;SDS011;11490;42.726;23.268;2023-02-24T00:31:24;8.77;;;5.15;;
22646;SDS011;11490;42.726;23.268;2023-02-24T00:33:55;10.65;;;5.97;;
22646;SDS011;11490;42.726;23.268;2023-02-24T00:36:21;9.75;;;6.07;;
22646;SDS011;11490;42.726;23.268;2023-02-24T00:38:51;9.35;;;5.65;;
22646;SDS011;11490;42.726;23.268;2023-02-24T00:41:30;11.02;;;5.45;;
22646;SDS011;11490;42.726;23.268;2023-02-24T00:43:57;12.40;;;5.95;;
22646;SDS011;11490;42.726;23.268;2023-02-24T00:46:34;14.13;;;5.97;;
22646;SDS011;11490;42.726;23.268;2023-02-24T00:49:03;6.53;;;4.75;;
22646;SDS011;11490;42.726;23.268;2023-02-24T00:51:34;7.13;;;4.90;;
22646;SDS011;11490;42.726;23.268;2023-02-24T00:54:01;8.35;;;5.00;;
22646;SDS011;11490;42.726;23.268;2023-02-24T00:56:28;8.48;;;5.25;;
22646;SDS011;11490;42.726;23.268;2023-02-24T00:58:55;9.07;;;5.28;;
22646;SDS011;11490;42.726;23.268;2023-02-24T01:01:23;9.27;;;6.47;;
22646;SDS011;11490;42.726;23.268;2023-02-24T01:03:50;7.55;;;5.10;;
22646;SDS011;11490;42.726;23.268;2023-02-24T01:06:19;6.85;;;4.97;;
22646;SDS011;11490;42.726;23.268;2023-02-24T01:08:46;5.93;;;4.43;;
22646;SDS011;11490;42.726;23.268;2023-02-24T01:11:14;8.63;;;4.82;;
22646;SDS011;11490;42.726;23.268;2023-02-24T01:13:59;8.57;;;5.25;;
22646;SDS011;11490;42.726;23.268;2023-02-24T01:16:28;7.00;;;5.95;;
22646;SDS011;11490;42.726;23.268;2023-02-24T01:18:53;9.32;;;4.50;;
22646;SDS011;11490;42.726;23.268;2023-02-24T01:21:18;5.90;;;4.00;;
22646;SDS011;11490;42.726;23.268;2023-02-24T01:23:47;5.60;;;4.13;;
22646;SDS011;11490;42.726;23.268;2023-02-24T01:26:14;8.55;;;4.93;;
22646;SDS011;11490;42.726;23.268;2023-02-24T01:28:41;6.60;;;5.00;;
22646;SDS011;11490;42.726;23.268;2023-02-24T01:31:07;6.75;;;4.97;;
22646;SDS011;11490;42.726;23.268;2023-02-24T01:33:33;7.85;;;4.80;;
22646;SDS011;11490;42.726;23.268;2023-02-24T01:36:14;9.40;;;5.38;;
22646;SDS011;11490;42.726;23.268;2023-02-24T01:38:42;5.13;;;4.28;;
22646;SDS011;11490;42.726;23.268;2023-02-24T01:41:09;12.57;;;5.40;;
22646;SDS011;11490;42.726;23.268;2023-02-24T01:43:57;6.38;;;4.43;;
22646;SDS011;11490;42.726;23.268;2023-02-24T01:46:27;7.78;;;4.28;;
22646;SDS011;11490;42.726;23.268;2023-02-24T01:48:57;8.13;;;4.60;;
22646;SDS011;11490;42.726;23.268;2023-02-24T01:51:27;6.53;;;4.57;;
22646;SDS011;11490;42.726;23.268;2023-02-24T01:53:58;6.47;;;4.55;;
22646;SDS011;11490;42.726;23.268;2023-02-24T01:56:24;6.05;;;4.40;;
22646;SDS011;11490;42.726;23.268;2023-02-24T01:58:53;12.90;;;5.63;;
22646;SDS011;11490;42.726;23.268;2023-02-24T02:01:19;5.65;;;4.65;;
22646;SDS011;11490;42.726;23.268;2023-02-24T02:03:45;8.32;;;5.10;;
22646;SDS011;11490;42.726;23.268;2023-02-24T02:06:12;8.70;;;4.95;;
22646;SDS011;11490;42.726;23.268;2023-02-24T02:08:41;3.50;;;2.45;;
22646;SDS011;11490;42.726;23.268;2023-02-24T02:11:08;7.15;;;4.90;;
22646;SDS011;11490;42.726;23.268;2023-02-24T02:13:38;6.10;;;4.20;;
22646;SDS011;11490;42.726;23.268;2023-02-24T02:38:38;5.63;;;3.70;;
22646;SDS011;11490;42.726;23.268;2023-02-24T02:43:57;7.18;;;4.22;;
22646;SDS011;11490;42.726;23.268;2023-02-24T02:46:31;7.80;;;4.32;;
22646;SDS011;11490;42.726;23.268;2023-02-24T02:49:11;6.70;;;4.97;;
22646;SDS011;11490;42.726;23.268;2023-02-24T02:51:43;5.60;;;3.85;;
22646;SDS011;11490;42.726;23.268;2023-02-24T02:56:48;7.63;;;4.97;;
22646;SDS011;11490;42.726;23.268;2023-02-24T02:59:18;6.70;;;4.85;;
22646;SDS011;11490;42.726;23.268;2023-02-24T03:01:49;4.72;;;3.90;;
22646;SDS011;11490;42.726;23.268;2023-02-24T03:04:20;7.10;;;4.68;;
22646;SDS011;11490;42.726;23.268;2023-02-24T03:06:52;8.07;;;3.72;;
22646;SDS011;11490;42.726;23.268;2023-02-24T03:09:26;4.90;;;3.92;;
22646;SDS011;11490;42.726;23.268;2023-02-24T03:12:00;5.35;;;3.78;;
22646;SDS011;11490;42.726;23.268;2023-02-24T03:14:32;7.18;;;3.90;;
22646;SDS011;11490;42.726;23.268;2023-02-24T03:17:03;5.88;;;3.55;;
22646;SDS011;11490;42.726;23.268;2023-02-24T03:19:34;6.60;;;4.30;;
22646;SDS011;11490;42.726;23.268;2023-02-24T03:22:08;8.27;;;5.45;;
22646;SDS011;11490;42.726;23.268;2023-02-24T03:25:00;7.65;;;4.97;;
22646;SDS011;11490;42.726;23.268;2023-02-24T03:27:30;8.20;;;5.30;;
22646;SDS011;11490;42.726;23.268;2023-02-24T03:32:42;7.13;;;5.05;;
22646;SDS011;11490;42.726;23.268;2023-02-24T03:35:23;7.53;;;5.05;;
22646;SDS011;11490;42.726;23.268;2023-02-24T03:37:52;7.05;;;5.00;;
22646;SDS011;11490;42.726;23.268;2023-02-24T03:40:20;7.88;;;5.43;;
22646;SDS011;11490;42.726;23.268;2023-02-24T03:42:47;8.60;;;4.45;;
22646;SDS011;11490;42.726;23.268;2023-02-24T03:45:16;6.75;;;4.65;;
22646;SDS011;11490;42.726;23.268;2023-02-24T03:47:42;5.55;;;3.92;;
22646;SDS011;11490;42.726;23.268;2023-02-24T03:50:12;8.15;;;5.07;;
22646;SDS011;11490;42.726;23.268;2023-02-24T03:58:16;7.72;;;4.15;;
22646;SDS011;11490;42.726;23.268;2023-02-24T04:06:44;5.38;;;3.53;;
22646;SDS011;11490;42.726;23.268;2023-02-24T04:09:18;4.15;;;3.33;;
22646;SDS011;11490;42.726;23.268;2023-02-24T04:17:12;4.20;;;3.45;;
22646;SDS011;11490;42.726;23.268;2023-02-24T04:19:43;6.32;;;3.65;;
22646;SDS011;11490;42.726;23.268;2023-02-24T04:22:12;6.07;;;3.75;;
22646;SDS011;11490;42.726;23.268;2023-02-24T04:24:44;5.18;;;3.58;;
22646;SDS011;11490;42.726;23.268;2023-02-24T04:27:14;5.43;;;4.68;;
22646;SDS011;11490;42.726;23.268;2023-02-24T04:29:41;5.50;;;4.25;;
22646;SDS011;11490;42.726;23.268;2023-02-24T04:32:12;4.00;;;3.60;;
22646;SDS011;11490;42.726;23.268;2023-02-24T04:34:40;4.47;;;3.40;;
22646;SDS011;11490;42.726;23.268;2023-02-24T04:37:06;5.75;;;3.88;;
22646;SDS011;11490;42.726;23.268;2023-02-24T04:39:32;6.05;;;3.28;;
22646;SDS011;11490;42.726;23.268;2023-02-24T04:42:02;7.35;;;4.45;;
22646;SDS011;11490;42.726;23.268;2023-02-24T04:44:29;6.30;;;4.05;;
22646;SDS011;11490;42.726;23.268;2023-02-24T04:46:57;8.63;;;5.07;;
22646;SDS011;11490;42.726;23.268;2023-02-24T04:49:23;6.25;;;4.20;;
22646;SDS011;11490;42.726;23.268;2023-02-24T04:51:50;8.05;;;4.45;;
22646;SDS011;11490;42.726;23.268;2023-02-24T04:54:16;9.23;;;5.75;;
22646;SDS011;11490;42.726;23.268;2023-02-24T04:56:43;7.13;;;4.97;;
22646;SDS011;11490;42.726;23.268;2023-02-24T04:59:12;10.93;;;6.30;;
22646;SDS011;11490;42.726;23.268;2023-02-24T05:01:39;16.55;;;6.25;;
22646;SDS011;11490;42.726;23.268;2023-02-24T05:04:06;19.45;;;6.43;;
22646;SDS011;11490;42.726;23.268;2023-02-24T05:06:32;15.50;;;8.75;;
22646;SDS011;11490;42.726;23.268;2023-02-24T05:08:58;20.27;;;8.63;;
22646;SDS011;11490;42.726;23.268;2023-02-24T05:11:26;11.73;;;6.78;;
22646;SDS011;11490;42.726;23.268;2023-02-24T05:13:57;9.57;;;5.15;;
22646;SDS011;11490;42.726;23.268;2023-02-24T05:16:22;10.68;;;5.40;;
22646;SDS011;11490;42.726;23.268;2023-02-24T05:18:48;7.72;;;5.40;;
22646;SDS011;11490;42.726;23.268;2023-02-24T05:21:15;7.78;;;4.97;;
22646;SDS011;11490;42.726;23.268;2023-02-24T05:23:59;6.10;;;3.88;;
22646;SDS011;11490;42.726;23.268;2023-02-24T05:26:30;9.43;;;5.30;;
22646;SDS011;11490;42.726;23.268;2023-02-24T05:28:58;8.55;;;5.20;;
22646;SDS011;11490;42.726;23.268;2023-02-24T05:31:26;12.27;;;5.50;;
22646;SDS011;11490;42.726;23.268;2023-02-24T05:34:00;10.48;;;6.22;;
22646;SDS011;11490;42.726;23.268;2023-02-24T05:36:28;9.10;;;5.40;;
22646;SDS011;11490;42.726;23.268;2023-02-24T05:38:56;9.82;;;5.78;;
22646;SDS011;11490;42.726;23.268;2023-02-24T05:41:22;21.67;;;7.47;;
22646;SDS011;11490;42.726;23.268;2023-02-24T05:43:56;31.45;;;14.52;;
22646;SDS011;11490;42.726;23.268;2023-02-24T05:46:26;12.85;;;5.35;;
22646;SDS011;11490;42.726;23.268;2023-02-24T05:48:56;8.90;;;4.65;;
22646;SDS011;11490;42.726;23.268;2023-02-24T05:51:28;7.25;;;4.43;;
22646;SDS011;11490;42.726;23.268;2023-02-24T05:54:07;6.82;;;4.22;;
22646;SDS011;11490;42.726;23.268;2023-02-24T05:56:35;11.60;;;5.65;;
22646;SDS011;11490;42.726;23.268;2023-02-24T05:59:03;12.10;;;5.18;;
22646;SDS011;11490;42.726;23.268;2023-02-24T06:01:36;7.88;;;4.75;;
22646;SDS011;11490;42.726;23.268;2023-02-24T06:04:05;18.65;;;6.97;;
22646;SDS011;11490;42.726;23.268;2023-02-24T06:09:03;7.38;;;5.20;;
22646;SDS011;11490;42.726;23.268;2023-02-24T06:11:35;19.80;;;9.32;;
22646;SDS011;11490;42.726;23.268;2023-02-24T06:14:01;9.32;;;5.57;;
22646;SDS011;11490;42.726;23.268;2023-02-24T06:16:31;9.65;;;5.75;;
22646;SDS011;11490;42.726;23.268;2023-02-24T06:18:58;10.90;;;5.43;;
22646;SDS011;11490;42.726;23.268;2023-02-24T06:21:23;8.25;;;4.80;;
22646;SDS011;11490;42.726;23.268;2023-02-24T06:23:53;9.68;;;5.57;;
22646;SDS011;11490;42.726;23.268;2023-02-24T06:26:19;10.57;;;5.53;;
22646;SDS011;11490;42.726;23.268;2023-02-24T06:28:45;8.05;;;5.03;;
22646;SDS011;11490;42.726;23.268;2023-02-24T06:31:12;8.30;;;5.07;;
22646;SDS011;11490;42.726;23.268;2023-02-24T06:33:39;8.00;;;5.22;;
22646;SDS011;11490;42.726;23.268;2023-02-24T06:36:06;9.70;;;6.05;;
22646;SDS011;11490;42.726;23.268;2023-02-24T06:38:35;5.20;;;4.70;;
22646;SDS011;11490;42.726;23.268;2023-02-24T06:41:01;8.02;;;5.50;;
22646;SDS011;11490;42.726;23.268;2023-02-24T06:43:31;13.43;;;5.72;;
22646;SDS011;11490;42.726;23.268;2023-02-24T06:45:57;7.18;;;5.40;;
22646;SDS011;11490;42.726;23.268;2023-02-24T06:48:25;10.77;;;6.07;;
22646;SDS011;11490;42.726;23.268;2023-02-24T06:50:51;12.02;;;6.28;;
22646;SDS011;11490;42.726;23.268;2023-02-24T06:53:17;9.18;;;4.93;;
22646;SDS011;11490;42.726;23.268;2023-02-24T06:55:44;14.85;;;6.65;;
22646;SDS011;11490;42.726;23.268;2023-02-24T06:58:16;16.42;;;6.22;;
22646;SDS011;11490;42.726;23.268;2023-02-24T07:00:44;10.70;;;6.45;;
22646;SDS011;11490;42.726;23.268;2023-02-24T07:03:20;10.68;;;5.50;;
22646;SDS011;11490;42.726;23.268;2023-02-24T07:05:51;9.82;;;5.72;;
22646;SDS011;11490;42.726;23.268;2023-02-24T07:08:36;6.38;;;5.07;;
22646;SDS011;11490;42.726;23.268;2023-02-24T07:11:02;5.93;;;4.45;;
22646;SDS011;11490;42.726;23.268;2023-02-24T07:13:30;7.05;;;4.95;;
22646;SDS011;11490;42.726;23.268;2023-02-24T07:15:58;9.15;;;5.90;;
22646;SDS011;11490;42.726;23.268;2023-02-24T07:18:24;10.48;;;6.43;;
22646;SDS011;11490;42.726;23.268;2023-02-24T07:20:50;11.13;;;6.25;;
22646;SDS011;11490;42.726;23.268;2023-02-24T07:23:16;8.65;;;5.45;;
22646;SDS011;11490;42.726;23.268;2023-02-24T07:25:41;7.20;;;4.63;;
22646;SDS011;11490;42.726;23.268;2023-02-24T07:28:10;5.95;;;5.35;;
22646;SDS011;11490;42.726;23.268;2023-02-24T07:30:38;10.98;;;6.13;;
22646;SDS011;11490;42.726;23.268;2023-02-24T07:33:05;9.40;;;5.65;;
22646;SDS011;11490;42.726;23.268;2023-02-24T07:35:31;8.80;;;5.03;;
22646;SDS011;11490;42.726;23.268;2023-02-24T07:37:57;8.48;;;5.38;;
22646;SDS011;11490;42.726;23.268;2023-02-24T07:40:30;7.55;;;4.88;;
22646;SDS011;11490;42.726;23.268;2023-02-24T07:42:57;10.65;;;5.68;;
22646;SDS011;11490;42.726;23.268;2023-02-24T07:45:23;7.40;;;5.47;;
22646;SDS011;11490;42.726;23.268;2023-02-24T07:47:48;6.72;;;4.60;;
22646;SDS011;11490;42.726;23.268;2023-02-24T07:50:17;8.95;;;4.65;;
22646;SDS011;11490;42.726;23.268;2023-02-24T07:52:46;8.25;;;4.85;;
22646;SDS011;11490;42.726;23.268;2023-02-24T07:55:12;17.42;;;7.35;;
22646;SDS011;11490;42.726;23.268;2023-02-24T07:57:39;15.38;;;9.00;;
22646;SDS011;11490;42.726;23.268;2023-02-24T08:00:10;11.40;;;5.22;;
22646;SDS011;11490;42.726;23.268;2023-02-24T08:02:45;9.38;;;6.15;;
22646;SDS011;11490;42.726;23.268;2023-02-24T08:05:12;11.15;;;6.00;;
22646;SDS011;11490;42.726;23.268;2023-02-24T08:07:47;8.95;;;6.90;;
22646;SDS011;11490;42.726;23.268;2023-02-24T08:10:33;16.27;;;7.25;;
22646;SDS011;11490;42.726;23.268;2023-02-24T08:13:01;28.25;;;13.40;;
22646;SDS011;11490;42.726;23.268;2023-02-24T08:15:28;14.45;;;7.82;;
22646;SDS011;11490;42.726;23.268;2023-02-24T08:17:58;11.05;;;6.10;;
22646;SDS011;11490;42.726;23.268;2023-02-24T08:20:25;19.35;;;10.70;;
22646;SDS011;11490;42.726;23.268;2023-02-24T08:22:53;28.75;;;12.65;;
22646;SDS011;11490;42.726;23.268;2023-02-24T08:25:21;26.10;;;14.25;;
22646;SDS011;11490;42.726;23.268;2023-02-24T08:27:52;17.35;;;8.52;;
22646;SDS011;11490;42.726;23.268;2023-02-24T08:30:22;15.10;;;9.40;;
22646;SDS011;11490;42.726;23.268;2023-02-24T08:32:53;16.67;;;8.30;;
22646;SDS011;11490;42.726;23.268;2023-02-24T08:35:30;12.48;;;5.65;;
22646;SDS011;11490;42.726;23.268;2023-02-24T08:40:39;10.18;;;7.13;;
22646;SDS011;11490;42.726;23.268;2023-02-24T08:43:26;11.13;;;6.45;;
22646;SDS011;11490;42.726;23.268;2023-02-24T08:45:55;17.77;;;6.60;;
22646;SDS011;11490;42.726;23.268;2023-02-24T08:48:24;9.52;;;7.05;;
22646;SDS011;11490;42.726;23.268;2023-02-24T08:51:07;12.65;;;8.77;;
22646;SDS011;11490;42.726;23.268;2023-02-24T08:53:52;10.00;;;7.05;;
22646;SDS011;11490;42.726;23.268;2023-02-24T08:56:21;13.23;;;8.50;;
22646;SDS011;11490;42.726;23.268;2023-02-24T08:58:53;9.98;;;7.32;;
22646;SDS011;11490;42.726;23.268;2023-02-24T09:01:30;9.18;;;6.25;;
22646;SDS011;11490;42.726;23.268;2023-02-24T09:04:16;9.60;;;5.63;;
22646;SDS011;11490;42.726;23.268;2023-02-24T09:06:47;11.85;;;5.90;;
22646;SDS011;11490;42.726;23.268;2023-02-24T09:09:22;9.05;;;5.40;;
22646;SDS011;11490;42.726;23.268;2023-02-24T09:11:52;11.68;;;5.68;;
22646;SDS011;11490;42.726;23.268;2023-02-24T09:14:26;10.15;;;5.20;;
22646;SDS011;11490;42.726;23.268;2023-02-24T09:16:54;10.05;;;5.50;;
22646;SDS011;11490;42.726;23.268;2023-02-24T09:19:35;7.20;;;4.70;;
22646;SDS011;11490;42.726;23.268;2023-02-24T09:22:16;6.75;;;4.78;;
22646;SDS011;11490;42.726;23.268;2023-02-24T09:24:57;7.13;;;4.30;;
22646;SDS011;11490;42.726;23.268;2023-02-24T09:28:10;10.65;;;5.53;;
22646;SDS011;11490;42.726;23.268;2023-02-24T09:36:04;11.27;;;5.75;;
22646;SDS011;11490;42.726;23.268;2023-02-24T09:41:32;10.48;;;4.53;;
22646;SDS011;11490;42.726;23.268;2023-02-24T09:44:23;8.25;;;5.13;;
22646;SDS011;11490;42.726;23.268;2023-02-24T09:46:51;7.95;;;4.85;;
22646;SDS011;11490;42.726;23.268;2023-02-24T09:49:23;11.52;;;6.05;;
22646;SDS011;11490;42.726;23.268;2023-02-24T09:52:06;10.30;;;5.55;;
22646;SDS011;11490;42.726;23.268;2023-02-24T09:54:41;9.65;;;6.60;;
22646;SDS011;11490;42.726;23.268;2023-02-24T09:57:18;11.27;;;5.53;;
22646;SDS011;11490;42.726;23.268;2023-02-24T09:59:58;9.60;;;4.95;;
22646;SDS011;11490;42.726;23.268;2023-02-24T10:03:34;10.35;;;5.35;;
22646;SDS011;11490;42.726;23.268;2023-02-24T10:08:25;10.60;;;6.45;;
22646;SDS011;11490;42.726;23.268;2023-02-24T10:10:56;11.07;;;7.75;;
22646;SDS011;11490;42.726;23.268;2023-02-24T10:13:35;9.40;;;6.00;;
22646;SDS011;11490;42.726;23.268;2023-02-24T10:16:18;9.02;;;5.57;;
22646;SDS011;11490;42.726;23.268;2023-02-24T10:18:50;10.13;;;5.70;;
22646;SDS011;11490;42.726;23.268;2023-02-24T10:26:55;8.93;;;5.68;;
22646;SDS011;11490;42.726;23.268;2023-02-24T10:29:31;9.48;;;5.47;;
22646;SDS011;11490;42.726;23.268;2023-02-24T10:32:10;13.63;;;6.65;;
22646;SDS011;11490;42.726;23.268;2023-02-24T10:34:55;15.65;;;6.35;;
22646;SDS011;11490;42.726;23.268;2023-02-24T10:37:22;10.13;;;6.28;;
22646;SDS011;11490;42.726;23.268;2023-02-24T10:39:55;10.43;;;6.22;;
22646;SDS011;11490;42.726;23.268;2023-02-24T10:42:26;10.20;;;5.38;;
22646;SDS011;11490;42.726;23.268;2023-02-24T10:45:03;9.90;;;6.03;;
22646;SDS011;11490;42.726;23.268;2023-02-24T10:47:36;17.58;;;6.60;;
22646;SDS011;11490;42.726;23.268;2023-02-24T10:50:31;11.13;;;6.13;;
22646;SDS011;11490;42.726;23.268;2023-02-24T10:53:00;10.40;;;6.65;;
22646;SDS011;11490;42.726;23.268;2023-02-24T10:55:32;8.80;;;5.80;;
22646;SDS011;11490;42.726;23.268;2023-02-24T11:01:28;16.67;;;7.40;;
22646;SDS011;11490;42.726;23.268;2023-02-24T11:04:05;11.00;;;6.38;;
22646;SDS011;11490;42.726;23.268;2023-02-24T11:07:04;10.68;;;6.13;;
22646;SDS011;11490;42.726;23.268;2023-02-24T11:09:49;12.27;;;5.43;;
22646;SDS011;11490;42.726;23.268;2023-02-24T11:12:35;12.07;;;6.35;;
22646;SDS011;11490;42.726;23.268;2023-02-24T11:15:21;13.27;;;7.18;;
22646;SDS011;11490;42.726;23.268;2023-02-24T11:18:21;13.48;;;6.57;;
22646;SDS011;11490;42.726;23.268;2023-02-24T11:20:54;11.80;;;6.40;;
22646;SDS011;11490;42.726;23.268;2023-02-24T11:23:24;14.00;;;6.60;;
22646;SDS011;11490;42.726;23.268;2023-02-24T11:25:58;13.02;;;6.47;;
22646;SDS011;11490;42.726;23.268;2023-02-24T11:28:28;10.75;;;6.60;;
22646;SDS011;11490;42.726;23.268;2023-02-24T11:31:10;12.80;;;6.45;;
22646;SDS011;11490;42.726;23.268;2023-02-24T11:36:39;12.82;;;7.03;;
22646;SDS011;11490;42.726;23.268;2023-02-24T11:42:14;10.23;;;7.05;;
22646;SDS011;11490;42.726;23.268;2023-02-24T11:45:08;9.90;;;6.80;;
22646;SDS011;11490;42.726;23.268;2023-02-24T11:47:35;13.23;;;7.88;;
22646;SDS011;11490;42.726;23.268;2023-02-24T11:50:23;17.38;;;7.20;;
22646;SDS011;11490;42.726;23.268;2023-02-24T11:52:54;13.50;;;7.00;;
22646;SDS011;11490;42.726;23.268;2023-02-24T11:55:33;14.68;;;7.47;;
22646;SDS011;11490;42.726;23.268;2023-02-24T11:58:05;12.75;;;7.85;;
22646;SDS011;11490;42.726;23.268;2023-02-24T12:00:36;27.58;;;12.93;;
22646;SDS011;11490;42.726;23.268;2023-02-24T12:03:22;19.42;;;8.95;;
22646;SDS011;11490;42.726;23.268;2023-02-24T12:05:54;12.52;;;7.72;;
22646;SDS011;11490;42.726;23.268;2023-02-24T12:08:32;19.33;;;9.60;;
22646;SDS011;11490;42.726;23.268;2023-02-24T12:13:38;46.22;;;17.90;;
22646;SDS011;11490;42.726;23.268;2023-02-24T12:16:14;23.15;;;10.85;;
22646;SDS011;11490;42.726;23.268;2023-02-24T12:19:03;53.50;;;21.77;;
22646;SDS011;11490;42.726;23.268;2023-02-24T12:21:40;22.27;;;10.63;;
22646;SDS011;11490;42.726;23.268;2023-02-24T12:24:09;14.68;;;8.15;;
22646;SDS011;11490;42.726;23.268;2023-02-24T12:40:50;13.50;;;7.75;;
22646;SDS011;11490;42.726;23.268;2023-02-24T12:43:31;13.77;;;6.97;;
22646;SDS011;11490;42.726;23.268;2023-02-24T12:46:01;10.57;;;6.45;;
22646;SDS011;11490;42.726;23.268;2023-02-24T12:51:24;9.82;;;6.70;;
22646;SDS011;11490;42.726;23.268;2023-02-24T12:54:17;14.45;;;9.13;;
22646;SDS011;11490;42.726;23.268;2023-02-24T12:59:31;12.38;;;7.78;;
22646;SDS011;11490;42.726;23.268;2023-02-24T13:08:10;14.93;;;8.40;;
22646;SDS011;11490;42.726;23.268;2023-02-24T13:10:42;17.20;;;8.57;;
22646;SDS011;11490;42.726;23.268;2023-02-24T13:13:24;10.57;;;6.50;;
22646;SDS011;11490;42.726;23.268;2023-02-24T13:15:58;12.85;;;8.32;;
22646;SDS011;11490;42.726;23.268;2023-02-24T13:18:29;12.90;;;8.35;;
22646;SDS011;11490;42.726;23.268;2023-02-24T13:21:04;15.52;;;9.25;;
22646;SDS011;11490;42.726;23.268;2023-02-24T13:23:33;17.27;;;8.90;;
22646;SDS011;11490;42.726;23.268;2023-02-24T13:26:00;27.45;;;15.55;;
22646;SDS011;11490;42.726;23.268;2023-02-24T13:28:29;20.10;;;11.05;;
22646;SDS011;11490;42.726;23.268;2023-02-24T13:31:03;18.25;;;10.77;;
22646;SDS011;11490;42.726;23.268;2023-02-24T13:33:33;22.88;;;11.60;;
22646;SDS011;11490;42.726;23.268;2023-02-24T13:36:16;14.38;;;9.15;;
22646;SDS011;11490;42.726;23.268;2023-02-24T13:38:50;13.13;;;8.15;;
22646;SDS011;11490;42.726;23.268;2023-02-24T13:44:00;14.82;;;8.55;;
22646;SDS011;11490;42.726;23.268;2023-02-24T13:49:39;13.98;;;8.10;;
22646;SDS011;11490;42.726;23.268;2023-02-24T14:00:27;18.60;;;10.77;;
22646;SDS011;11490;42.726;23.268;2023-02-24T14:03:10;20.25;;;10.60;;
22646;SDS011;11490;42.726;23.268;2023-02-24T14:05:42;13.80;;;7.82;;
22646;SDS011;11490;42.726;23.268;2023-02-24T14:08:11;13.05;;;8.55;;
22646;SDS011;11490;42.726;23.268;2023-02-24T14:10:43;17.45;;;8.02;;
22646;SDS011;11490;42.726;23.268;2023-02-24T14:13:15;14.25;;;8.10;;
22646;SDS011;11490;42.726;23.268;2023-02-24T14:15:44;13.05;;;7.32;;
22646;SDS011;11490;42.726;23.268;2023-02-24T14:18:19;18.35;;;8.63;;
22646;SDS011;11490;42.726;23.268;2023-02-24T14:20:46;14.98;;;7.85;;
22646;SDS011;11490;42.726;23.268;2023-02-24T14:23:31;14.68;;;7.28;;
22646;SDS011;11490;42.726;23.268;2023-02-24T14:25:59;16.35;;;9.50;;
22646;SDS011;11490;42.726;23.268;2023-02-24T14:28:30;17.08;;;8.68;;
22646;SDS011;11490;42.726;23.268;2023-02-24T14:31:05;21.65;;;9.07;;
22646;SDS011;11490;42.726;23.268;2023-02-24T14:33:34;18.85;;;9.65;;
22646;SDS011;11490;42.726;23.268;2023-02-24T14:36:02;16.98;;;9.10;;
22646;SDS011;11490;42.726;23.268;2023-02-24T14:38:37;13.50;;;8.65;;
22646;SDS011;11490;42.726;23.268;2023-02-24T14:41:05;18.35;;;9.82;;
22646;SDS011;11490;42.726;23.268;2023-02-24T14:43:51;15.68;;;8.50;;
22646;SDS011;11490;42.726;23.268;2023-02-24T14:46:17;14.15;;;7.72;;
22646;SDS011;11490;42.726;23.268;2023-02-24T14:48:43;16.80;;;9.30;;
22646;SDS011;11490;42.726;23.268;2023-02-24T14:51:21;13.82;;;8.95;;
22646;SDS011;11490;42.726;23.268;2023-02-24T14:53:51;15.50;;;8.38;;
22646;SDS011;11490;42.726;23.268;2023-02-24T14:56:22;14.38;;;9.27;;
22646;SDS011;11490;42.726;23.268;2023-02-24T14:58:56;16.52;;;9.50;;
22646;SDS011;11490;42.726;23.268;2023-02-24T15:01:41;15.30;;;8.63;;
22646;SDS011;11490;42.726;23.268;2023-02-24T15:04:12;19.92;;;11.05;;
22646;SDS011;11490;42.726;23.268;2023-02-24T15:06:47;18.65;;;10.02;;
22646;SDS011;11490;42.726;23.268;2023-02-24T15:09:17;14.55;;;8.73;;
22646;SDS011;11490;42.726;23.268;2023-02-24T15:11:46;16.55;;;9.55;;
22646;SDS011;11490;42.726;23.268;2023-02-24T15:14:18;22.67;;;10.18;;
22646;SDS011;11490;42.726;23.268;2023-02-24T15:16:48;15.77;;;10.02;;
22646;SDS011;11490;42.726;23.268;2023-02-24T15:19:24;16.77;;;10.30;;
22646;SDS011;11490;42.726;23.268;2023-02-24T15:21:53;13.77;;;7.85;;
22646;SDS011;11490;42.726;23.268;2023-02-24T15:24:23;19.60;;;10.43;;
22646;SDS011;11490;42.726;23.268;2023-02-24T15:27:17;16.88;;;8.85;;
22646;SDS011;11490;42.726;23.268;2023-02-24T15:29:40;14.35;;;9.88;;
22646;SDS011;11490;42.726;23.268;2023-02-24T15:32:14;18.08;;;11.25;;
22646;SDS011;11490;42.726;23.268;2023-02-24T15:34:45;18.52;;;10.02;;
22646;SDS011;11490;42.726;23.268;2023-02-24T15:37:15;31.20;;;19.08;;
22646;SDS011;11490;42.726;23.268;2023-02-24T15:40:03;14.90;;;9.48;;
22646;SDS011;11490;42.726;23.268;2023-02-24T15:42:32;15.93;;;9.55;;
22646;SDS011;11490;42.726;23.268;2023-02-24T15:45:03;31.65;;;13.10;;
22646;SDS011;11490;42.726;23.268;2023-02-24T15:47:45;22.88;;;13.82;;
22646;SDS011;11490;42.726;23.268;2023-02-24T15:50:17;31.30;;;15.77;;
22646;SDS011;11490;42.726;23.268;2023-02-24T15:52:43;32.55;;;16.27;;
22646;SDS011;11490;42.726;23.268;2023-02-24T15:55:10;33.05;;;17.95;;
22646;SDS011;11490;42.726;23.268;2023-02-24T15:57:40;34.35;;;14.05;;
22646;SDS011;11490;42.726;23.268;2023-02-24T16:00:06;30.50;;;15.75;;
22646;SDS011;11490;42.726;23.268;2023-02-24T16:02:38;34.58;;;16.17;;
22646;SDS011;11490;42.726;23.268;2023-02-24T16:05:04;44.70;;;22.77;;
22646;SDS011;11490;42.726;23.268;2023-02-24T16:07:34;51.88;;;25.08;;
22646;SDS011;11490;42.726;23.268;2023-02-24T16:10:02;40.38;;;20.88;;
22646;SDS011;11490;42.726;23.268;2023-02-24T16:12:32;42.70;;;21.52;;
22646;SDS011;11490;42.726;23.268;2023-02-24T16:15:01;53.03;;;26.02;;
22646;SDS011;11490;42.726;23.268;2023-02-24T16:17:34;49.95;;;22.40;;
22646;SDS011;11490;42.726;23.268;2023-02-24T16:20:03;42.33;;;20.48;;
22646;SDS011;11490;42.726;23.268;2023-02-24T16:22:33;44.45;;;23.90;;
22646;SDS011;11490;42.726;23.268;2023-02-24T16:24:59;51.95;;;28.73;;
22646;SDS011;11490;42.726;23.268;2023-02-24T16:27:24;62.30;;;33.45;;
22646;SDS011;11490;42.726;23.268;2023-02-24T16:29:53;69.45;;;35.88;;
22646;SDS011;11490;42.726;23.268;2023-02-24T16:32:19;67.35;;;31.88;;
22646;SDS011;11490;42.726;23.268;2023-02-24T16:34:47;64.88;;;32.60;;
22646;SDS011;11490;42.726;23.268;2023-02-24T16:37:31;85.40;;;42.58;;
22646;SDS011;11490;42.726;23.268;2023-02-24T16:39:57;60.67;;;35.15;;
22646;SDS011;11490;42.726;23.268;2023-02-24T16:42:23;47.85;;;27.98;;
22646;SDS011;11490;42.726;23.268;2023-02-24T16:44:48;43.25;;;25.27;;
22646;SDS011;11490;42.726;23.268;2023-02-24T16:47:21;54.42;;;28.38;;
22646;SDS011;11490;42.726;23.268;2023-02-24T16:49:48;50.95;;;26.90;;
22646;SDS011;11490;42.726;23.268;2023-02-24T16:52:14;46.55;;;24.10;;
22646;SDS011;11490;42.726;23.268;2023-02-24T16:54:43;55.28;;;29.85;;
22646;SDS011;11490;42.726;23.268;2023-02-24T16:57:09;51.88;;;25.85;;